Time;durP1;ratioP1;P1;durP2;ratioP2;P2;SDS_P1;SDS_P2;PMS_P1;PMS_P2;Temp;Humidity;BMP_temperature;BMP_pressure;BME280_temperature;BME280_humidity;BME280_pressure;Samples;Min_cycle;Max_cycle;Signal;HPM_P1;HPM_P2
2022/08/10 00:00:21;;;;;;;3.20;2.17;;;;;;;25.88;34.41;100280.34;4159550;28;20224;-29
2022/08/10 00:02:23;;;;;;;4.15;2.03;;;;;;;25.79;34.27;100295.44;4157477;28;20713;-28
2022/08/10 00:04:25;;;;;;;4.05;2.13;;;;;;;25.72;34.44;100281.97;4161035;28;20275;-30
2022/08/10 00:06:27;;;;;;;2.00;1.80;;;;;;;25.04;35.22;100298.16;4156057;28;20267;-30
2022/08/10 00:08:29;;;;;;;4.00;2.28;;;;;;;25.56;34.96;100275.47;4153499;28;20290;-30
2022/08/10 00:10:30;;;;;;;4.15;2.17;;;;;;;25.38;35.07;100279.22;4161934;28;20244;-30
2022/08/10 00:12:32;;;;;;;2.42;2.20;;;;;;;25.16;35.28;100284.53;4163662;28;20766;-29
2022/08/10 00:14:54;;;;;;;2.58;2.20;;;;;;;25.39;34.99;100275.44;4148311;28;20229;-31
2022/08/10 00:16:56;;;;;;;4.28;2.00;;;;;;;25.23;35.27;100268.84;4161789;28;20235;-29
2022/08/10 00:18:57;;;;;;;3.13;2.08;;;;;;;25.50;34.95;100262.00;4163455;28;20828;-29
2022/08/10 00:20:59;;;;;;;3.08;2.40;;;;;;;26.05;34.51;100268.63;4160683;28;20240;-30
2022/08/10 00:23:01;;;;;;;4.53;2.42;;;;;;;25.74;34.47;100276.28;4160862;28;20301;-29
2022/08/10 00:25:03;;;;;;;3.28;2.10;;;;;;;25.44;34.86;100284.75;4159982;28;20240;-30
2022/08/10 00:27:05;;;;;;;4.47;2.35;;;;;;;25.21;35.12;100289.25;4164994;28;20244;-31
2022/08/10 00:29:27;;;;;;;2.97;2.20;;;;;;;25.02;35.41;100286.72;4158521;28;20282;-31
2022/08/10 00:31:28;;;;;;;2.58;2.00;;;;;;;25.69;34.45;100277.03;4159832;28;20678;-31
2022/08/10 00:33:30;;;;;;;2.67;1.80;;;;;;;25.33;35.16;100281.00;4161233;28;20693;-30
2022/08/10 00:35:32;;;;;;;4.75;2.40;;;;;;;25.59;34.92;100282.31;4165052;28;20232;-30
2022/08/10 00:37:34;;;;;;;5.65;2.10;;;;;;;25.41;34.86;100283.38;4158362;28;20229;-30
2022/08/10 00:39:35;;;;;;;4.43;2.67;;;;;;;24.74;35.72;100289.38;4160363;28;20233;-29
2022/08/10 00:41:40;;;;;;;2.92;2.33;;;;;;;24.83;35.68;100282.50;4155560;28;20237;-31
2022/08/10 00:43:41;;;;;;;2.38;2.17;;;;;;;25.49;34.81;100274.81;4158218;28;20294;-31
2022/08/10 00:45:43;;;;;;;2.10;1.90;;;;;;;25.41;34.88;100269.75;4162800;28;20233;-29
2022/08/10 00:48:01;;;;;;;4.50;2.25;;;;;;;25.29;35.30;100282.56;4158009;28;20633;-29
2022/08/10 00:50:04;;;;;;;2.92;2.25;;;;;;;25.01;35.71;100274.16;4162395;28;20326;-30
2022/08/10 00:52:07;;;;;;;2.40;2.20;;;;;;;25.06;35.44;100276.16;4156840;28;20228;-29
2022/08/10 00:54:09;;;;;;;3.17;2.55;;;;;;;24.86;35.52;100269.25;4161744;28;20232;-28
2022/08/10 00:56:25;;;;;;;3.33;2.17;;;;;;;24.85;35.75;100269.47;4159080;28;20304;-28
2022/08/10 00:58:47;;;;;;;2.67;2.40;;;;;;;24.44;35.85;100274.06;4152811;28;20244;-30
2022/08/10 01:00:49;;;;;;;3.50;2.17;;;;;;;24.99;35.56;100264.59;4159532;28;20820;-29
2022/08/10 01:02:51;;;;;;;3.55;2.47;;;;;;;24.62;35.80;100273.09;4160080;28;20315;-32
2022/08/10 01:04:53;;;;;;;3.13;2.72;;;;;;;24.71;35.81;100259.94;4158176;28;20335;-29
2022/08/10 01:07:13;;;;;;;4.28;2.53;;;;;;;24.85;35.58;100255.88;4162453;28;20775;-31
2022/08/10 01:09:18;;;;;;;3.10;2.38;;;;;;;24.47;35.70;100273.59;4161892;28;20228;-32
2022/08/10 01:11:37;;;;;;;5.70;2.50;;;;;;;25.02;35.47;100259.50;4155708;28;20234;-28
2022/08/10 01:14:11;;;;;;;4.65;2.40;;;;;;;24.20;36.41;100259.69;4159861;28;20232;-28
2022/08/10 01:16:46;;;;;;;4.13;2.10;;;;;;;24.67;35.90;100251.44;4164209;28;20696;-28
2022/08/10 01:19:15;;;;;;;2.97;2.45;;;;;;;24.80;35.95;100255.78;4161082;28;20656;-29
2022/08/10 01:21:44;;;;;;;4.20;2.33;;;;;;;23.99;36.46;100270.06;4139300;28;20273;-28
2022/08/10 01:24:25;;;;;;;2.60;2.40;;;;;;;24.21;36.52;100259.44;4156481;28;20718;-28
2022/08/10 01:26:30;;;;;;;3.45;2.40;;;;;;;24.27;36.38;100261.19;4160945;28;20253;-30
2022/08/10 01:28:54;;;;;;;3.53;2.10;;;;;;;24.67;36.08;100252.25;4154710;28;20259;-30
2022/08/10 01:30:59;;;;;;;3.42;2.10;;;;;;;23.81;36.68;100272.88;4158825;28;20232;-30
2022/08/10 01:33:24;;;;;;;4.53;2.20;;;;;;;24.24;36.51;100258.94;4157283;28;20236;-29
2022/08/10 01:35:52;;;;;;;4.55;2.30;;;;;;;23.82;36.77;100271.78;4159443;28;20233;-28
2022/08/10 01:38:17;;;;;;;2.47;2.28;;;;;;;24.35;36.17;100275.50;4156713;28;20309;-32
2022/08/10 01:40:24;;;;;;;4.47;2.28;;;;;;;23.82;37.05;100275.31;4161895;28;20227;-30
2022/08/10 01:42:31;;;;;;;4.25;2.38;;;;;;;23.98;36.82;100257.53;4152801;28;20230;-29
2022/08/10 01:44:38;;;;;;;5.80;2.33;;;;;;;23.51;37.22;100287.28;4145130;28;20287;-28
2022/08/10 01:46:44;;;;;;;5.10;2.35;;;;;;;24.03;36.86;100256.81;4171944;28;20241;-30
2022/08/10 01:48:53;;;;;;;5.28;2.17;;;;;;;23.91;36.91;100276.66;4158161;28;20250;-30
2022/08/10 01:51:32;;;;;;;4.93;2.10;;;;;;;24.58;35.91;100267.31;4157050;28;20236;-29
2022/08/10 01:53:40;;;;;;;3.50;2.20;;;;;;;23.89;36.59;100273.34;4159596;28;20244;-30
2022/08/10 01:55:43;;;;;;;2.50;2.20;;;;;;;24.13;36.33;100276.06;4155698;28;20243;-29
2022/08/10 01:57:46;;;;;;;2.70;2.50;;;;;;;23.83;36.94;100274.28;4160979;28;20630;-30
2022/08/10 01:59:49;;;;;;;4.35;2.60;;;;;;;23.48;37.30;100272.28;4163085;28;20236;-30
2022/08/10 02:02:07;;;;;;;2.65;2.13;;;;;;;23.96;36.60;100265.09;4162023;28;20235;-30
2022/08/10 02:04:12;;;;;;;3.70;2.22;;;;;;;23.58;36.93;100280.72;4157777;28;20287;-30
2022/08/10 02:06:16;;;;;;;3.45;2.35;;;;;;;24.12;36.39;100277.13;4157974;28;20244;-29
2022/08/10 02:08:19;;;;;;;3.53;2.15;;;;;;;24.05;36.69;100287.28;4156341;28;20262;-29
2022/08/10 02:10:23;;;;;;;2.40;2.00;;;;;;;24.29;36.12;100286.25;4154958;28;20229;-30
2022/08/10 02:12:32;;;;;;;3.17;2.28;;;;;;;24.17;36.54;100279.16;4160978;28;20737;-30
2022/08/10 02:14:53;;;;;;;4.70;2.42;;;;;;;23.67;36.98;100296.66;4155422;28;20347;-29
2022/08/10 02:16:55;;;;;;;6.65;2.30;;;;;;;23.60;37.27;100287.81;4161489;28;20614;-30
2022/08/10 02:18:59;;;;;;;5.43;2.53;;;;;;;23.99;36.58;100283.63;4159066;28;20240;-28
2022/08/10 02:21:03;;;;;;;3.25;2.35;;;;;;;24.13;36.65;100284.22;4154659;28;20697;-30
2022/08/10 02:23:15;;;;;;;5.05;2.38;;;;;;;23.93;36.79;100290.00;4161325;28;20654;-29
2022/08/10 02:25:20;;;;;;;3.95;2.20;;;;;;;23.81;36.93;100295.41;4158592;28;20239;-29
2022/08/10 02:27:42;;;;;;;3.75;2.17;;;;;;;23.93;36.86;100288.09;4159304;28;20241;-30
2022/08/10 02:29:46;;;;;;;4.63;2.45;;;;;;;23.61;37.13;100301.16;4158485;28;20237;-30
2022/08/10 02:31:50;;;;;;;4.10;2.72;;;;;;;23.11;38.17;100304.94;4160142;28;20752;-31
2022/08/10 02:33:56;;;;;;;3.00;2.57;;;;;;;23.19;37.77;100301.09;4154226;28;21082;-30
2022/08/10 02:36:03;;;;;;;2.47;2.20;;;;;;;23.29;37.76;100295.13;4161221;28;20231;-30
2022/08/10 02:38:07;;;;;;;4.30;2.43;;;;;;;22.93;38.32;100292.25;4155966;28;20243;-29
2022/08/10 02:40:09;;;;;;;4.63;2.50;;;;;;;22.92;38.33;100278.91;4160444;28;20221;-30
2022/08/10 02:42:54;;;;;;;2.57;2.37;;;;;;;23.12;38.06;100267.81;4150509;28;20536;-29
2022/08/10 02:45:25;;;;;;;7.13;2.67;;;;;;;23.28;38.00;100288.03;4158424;28;20761;-29
2022/08/10 02:47:38;;;;;;;2.60;2.40;;;;;;;23.24;37.94;100284.97;4155553;28;20244;-30
2022/08/10 02:50:18;;;;;;;3.85;2.45;;;;;;;23.22;37.99;100299.81;4159958;28;20285;-29
2022/08/10 02:52:27;;;;;;;2.30;2.10;;;;;;;23.09;38.02;100301.63;4155087;28;20702;-30
2022/08/10 02:54:34;;;;;;;4.77;2.33;;;;;;;22.91;38.24;100299.78;4157037;28;20236;-29
2022/08/10 02:57:02;;;;;;;2.97;2.40;;;;;;;23.06;38.16;100296.66;4153815;28;20240;-29
2022/08/10 02:59:15;;;;;;;3.03;2.27;;;;;;;23.26;37.95;100290.97;4158751;28;20227;-29
2022/08/10 03:01:21;;;;;;;3.77;2.53;;;;;;;23.11;38.01;100302.22;4160575;28;20232;-30
2022/08/10 03:03:29;;;;;;;4.13;2.30;;;;;;;23.32;37.86;100300.91;4157626;28;20232;-30
2022/08/10 03:05:32;;;;;;;2.80;2.50;;;;;;;22.58;38.81;100313.72;4157450;28;20232;-30
2022/08/10 03:07:45;;;;;;;2.80;2.60;;;;;;;22.98;38.07;100292.41;4162414;28;20240;-29
2022/08/10 03:09:49;;;;;;;4.17;2.50;;;;;;;22.95;38.27;100292.84;4153212;28;20236;-29
2022/08/10 03:11:53;;;;;;;5.03;2.20;;;;;;;22.98;38.23;100295.13;4161471;28;20720;-30
2022/08/10 03:14:17;;;;;;;2.83;2.30;;;;;;;23.14;37.78;100290.94;4150872;28;20257;-29
2022/08/10 03:16:21;;;;;;;2.83;2.53;;;;;;;22.90;38.32;100302.72;4158902;28;20774;-28
2022/08/10 03:18:23;;;;;;;5.23;2.67;;;;;;;22.90;38.36;100300.81;4158925;28;20228;-29
2022/08/10 03:20:29;;;;;;;6.20;2.37;;;;;;;23.23;37.89;100298.75;4156043;28;20244;-29
2022/08/10 03:22:41;;;;;;;9.73;2.60;;;;;;;23.43;37.43;100301.19;4158585;28;20228;-30
2022/08/10 03:24:44;;;;;;;5.40;2.10;;;;;;;22.77;38.11;100323.47;4158594;28;20240;-29
2022/08/10 03:26:47;;;;;;;4.00;2.20;;;;;;;23.31;37.77;100312.00;4158764;28;20228;-30
2022/08/10 03:28:51;;;;;;;3.93;2.37;;;;;;;22.80;38.37;100314.91;4154759;28;20232;-30
2022/08/10 03:30:54;;;;;;;3.27;2.10;;;;;;;23.21;37.82;100307.13;4160211;28;20251;-31
2022/08/10 03:32:57;;;;;;;4.00;2.37;;;;;;;23.22;38.09;100316.91;4158516;28;20842;-30
2022/08/10 03:35:00;;;;;;;2.40;2.20;;;;;;;23.54;37.30;100309.38;4159633;28;20263;-29
2022/08/10 03:37:02;;;;;;;2.20;2.00;;;;;;;22.86;38.45;100307.75;4159939;28;20303;-30
2022/08/10 03:39:03;;;;;;;3.73;2.67;;;;;;;23.47;37.63;100308.66;4159867;28;20231;-32
2022/08/10 03:41:10;;;;;;;4.35;3.22;;;;;;;22.97;38.18;100303.47;4161885;28;20246;-29
2022/08/10 03:43:19;;;;;;;2.23;2.03;;;;;;;23.11;38.01;100315.78;4156948;28;20327;-31
2022/08/10 03:45:24;;;;;;;2.73;2.53;;;;;;;23.08;38.06;100305.44;4160197;28;20595;-31
2022/08/10 03:47:28;;;;;;;6.47;3.17;;;;;;;23.20;37.93;100316.34;4159524;28;20243;-31
2022/08/10 03:49:31;;;;;;;4.17;2.30;;;;;;;22.48;38.67;100324.25;4156634;28;20229;-29
2022/08/10 03:51:34;;;;;;;3.10;2.40;;;;;;;22.83;38.40;100316.34;4158495;28;20232;-30
2022/08/10 03:53:36;;;;;;;4.97;2.30;;;;;;;22.64;38.65;100326.34;4163807;28;20236;-30
2022/08/10 03:55:59;;;;;;;3.97;2.30;;;;;;;22.81;38.49;100313.84;4160458;28;20259;-31
2022/08/10 03:58:21;;;;;;;3.20;2.10;;;;;;;22.22;39.30;100324.25;4163926;28;20252;-29
2022/08/10 04:00:23;;;;;;;2.37;2.17;;;;;;;22.24;39.08;100326.72;4161158;28;20229;-31
2022/08/10 04:02:25;;;;;;;4.13;2.87;;;;;;;22.50;38.89;100322.13;4165671;28;20646;-29
2022/08/10 04:04:47;;;;;;;2.90;2.27;;;;;;;22.56;38.88;100323.94;4158324;28;20240;-29
2022/08/10 04:06:50;;;;;;;4.70;2.30;;;;;;;22.30;39.04;100327.75;4165218;28;20704;-30
2022/08/10 04:08:57;;;;;;;5.00;2.00;;;;;;;21.68;40.49;100328.41;4158061;28;20657;-29
2022/08/10 04:10:59;;;;;;;8.47;2.53;;;;;;;21.83;40.13;100328.09;4166061;28;20243;-29
2022/08/10 04:13:00;;;;;;;4.47;2.40;;;;;;;22.60;38.72;100325.16;4161936;28;21264;-30
2022/08/10 04:15:02;;;;;;;6.67;2.60;;;;;;;22.33;39.21;100338.97;4156539;28;20227;-30
2022/08/10 04:17:04;;;;;;;4.13;2.20;;;;;;;22.31;39.46;100332.94;4166031;28;20234;-31
2022/08/10 04:19:10;;;;;;;3.37;2.73;;;;;;;22.42;39.17;100337.63;4161270;28;20706;-30
2022/08/10 04:21:19;;;;;;;7.63;2.50;;;;;;;22.18;39.67;100350.09;4162500;28;20549;-29
2022/08/10 04:23:26;;;;;;;3.80;2.13;;;;;;;22.26;39.41;100338.97;4160084;28;20227;-29
2022/08/10 04:25:28;;;;;;;2.60;2.40;;;;;;;22.08;39.70;100345.19;4162923;28;20224;-29
2022/08/10 04:27:31;;;;;;;3.40;2.40;;;;;;;22.14;39.68;100329.13;4161437;28;20282;-29
2022/08/10 04:29:33;;;;;;;5.70;2.40;;;;;;;21.85;40.22;100340.38;4159400;28;20312;-29
2022/08/10 04:31:36;;;;;;;10.30;2.80;;;;;;;22.38;39.29;100341.81;4159019;28;20275;-31
2022/08/10 04:33:47;;;;;;;3.07;2.33;;;;;;;22.20;39.92;100317.38;4157838;28;20751;-29
2022/08/10 04:35:50;;;;;;;3.27;2.60;;;;;;;21.73;40.36;100363.75;4162645;28;20245;-30
2022/08/10 04:37:54;;;;;;;3.87;2.40;;;;;;;21.32;40.88;100346.06;4161787;28;20281;-30
2022/08/10 04:39:56;;;;;;;6.50;2.50;;;;;;;21.55;40.47;100356.38;4163650;28;20228;-29
2022/08/10 04:41:58;;;;;;;3.63;2.40;;;;;;;22.63;39.05;100338.25;4159812;28;20302;-29
2022/08/10 04:44:00;;;;;;;6.47;2.30;;;;;;;22.30;39.32;100361.06;4165114;28;20236;-30
2022/08/10 04:46:02;;;;;;;4.57;2.27;;;;;;;22.55;39.04;100361.03;4160078;28;20228;-30
2022/08/10 04:48:14;;;;;;;5.70;2.60;;;;;;;22.33;39.51;100355.22;4164441;28;20228;-30
2022/08/10 04:50:36;;;;;;;4.17;2.00;;;;;;;22.09;40.13;100360.38;4159163;28;20278;-31
2022/08/10 04:52:38;;;;;;;3.00;2.30;;;;;;;22.10;39.90;100362.06;4162047;28;20244;-31
2022/08/10 04:54:40;;;;;;;3.20;2.33;;;;;;;21.79;40.20;100367.50;4161227;28;20248;-30
2022/08/10 04:56:42;;;;;;;4.57;2.47;;;;;;;22.62;39.32;100347.41;4154653;28;20294;-29
2022/08/10 04:58:44;;;;;;;2.70;2.20;;;;;;;21.83;40.28;100364.13;4163347;28;20240;-30
2022/08/10 05:00:45;;;;;;;4.90;2.50;;;;;;;22.28;39.60;100360.44;4155299;28;20236;-31
2022/08/10 05:02:47;;;;;;;4.30;2.87;;;;;;;21.74;40.83;100346.47;4161392;28;20302;-30
2022/08/10 05:04:49;;;;;;;2.60;2.40;;;;;;;22.08;40.12;100355.19;4159445;28;20580;-30
2022/08/10 05:06:51;;;;;;;5.43;2.30;;;;;;;21.99;40.51;100341.09;4164911;28;20293;-29
2022/08/10 05:08:53;;;;;;;2.83;2.50;;;;;;;22.22;40.10;100343.19;4157223;28;20730;-31
2022/08/10 05:10:54;;;;;;;3.27;2.30;;;;;;;22.22;40.10;100340.50;4161484;28;20235;-29
2022/08/10 05:12:56;;;;;;;3.63;2.43;;;;;;;21.89;40.41;100346.16;4161746;28;20236;-31
2022/08/10 05:14:58;;;;;;;3.00;2.53;;;;;;;21.64;41.02;100354.25;4158232;28;20235;-30
2022/08/10 05:16:59;;;;;;;6.63;2.40;;;;;;;21.55;41.07;100353.66;4162713;28;20310;-29
2022/08/10 05:19:01;;;;;;;5.27;2.33;;;;;;;22.03;40.22;100369.38;4165823;28;20232;-29
2022/08/10 05:21:04;;;;;;;3.30;2.60;;;;;;;21.37;41.55;100365.19;4161544;28;20235;-29
2022/08/10 05:23:06;;;;;;;2.97;2.30;;;;;;;22.34;40.20;100351.47;4161332;28;20228;-30
2022/08/10 05:25:11;;;;;;;2.30;1.90;;;;;;;22.38;40.17;100371.63;4163818;28;20229;-32
2022/08/10 05:27:12;;;;;;;4.30;2.20;;;;;;;22.76;39.43;100359.78;4158505;28;20232;-29
2022/08/10 05:29:14;;;;;;;2.50;2.30;;;;;;;22.15;40.43;100377.63;4165946;28;20385;-34
2022/08/10 05:31:16;;;;;;;9.33;2.27;;;;;;;22.81;39.57;100354.53;4157522;28;20751;-30
2022/08/10 05:33:25;;;;;;;4.93;2.17;;;;;;;23.07;39.06;100371.56;4155260;28;20653;-29
2022/08/10 05:35:28;;;;;;;5.70;2.50;;;;;;;23.26;38.59;100395.97;4165094;28;20290;-31
2022/08/10 05:37:51;;;;;;;5.60;2.40;;;;;;;22.99;39.33;100388.13;4155814;28;20299;-31
2022/08/10 05:40:13;;;;;;;3.07;2.10;;;;;;;22.94;39.33;100399.66;4146858;28;20234;-33
2022/08/10 05:42:16;;;;;;;4.10;2.67;;;;;;;22.50;39.98;100406.13;4158647;28;20699;-31
2022/08/10 05:44:22;;;;;;;5.83;2.20;;;;;;;22.74;39.74;100386.31;4162608;28;20717;-32
2022/08/10 05:46:23;;;;;;;12.60;3.00;;;;;;;23.18;39.25;100397.09;4155980;28;20283;-30
2022/08/10 05:48:25;;;;;;;3.60;2.47;;;;;;;22.86;39.49;100402.66;4163612;28;20224;-31
2022/08/10 05:50:48;;;;;;;7.90;2.30;;;;;;;23.43;39.21;100390.75;4160874;28;20244;-30
2022/08/10 05:52:50;;;;;;;4.22;2.50;;;;;;;23.35;39.09;100402.72;4163114;28;20759;-32
2022/08/10 05:54:52;;;;;;;11.05;3.10;;;;;;;23.16;39.44;100418.19;4158377;28;20294;-31
2022/08/10 05:56:54;;;;;;;9.65;2.60;;;;;;;23.66;38.96;100395.47;4160017;28;20235;-29
2022/08/10 05:58:59;;;;;;;4.13;2.72;;;;;;;23.35;39.34;100419.00;4161945;28;20236;-30
2022/08/10 06:01:05;;;;;;;5.22;2.65;;;;;;;23.77;38.94;100408.25;4154712;28;20281;-31
2022/08/10 06:03:10;;;;;;;6.07;2.78;;;;;;;23.64;39.00;100413.88;4159256;28;20367;-30
2022/08/10 06:05:19;;;;;;;5.72;2.90;;;;;;;24.04;38.72;100402.41;4162785;28;20287;-30
2022/08/10 06:07:25;;;;;;;5.93;2.40;;;;;;;23.89;38.60;100421.84;4161214;28;20229;-33
2022/08/10 06:09:29;;;;;;;3.38;2.28;;;;;;;23.49;39.25;100427.81;4164150;28;20311;-31
2022/08/10 06:11:32;;;;;;;6.68;2.38;;;;;;;23.72;38.96;100419.81;4165357;28;20577;-30
2022/08/10 06:16:20;;;;;;;3.60;1.83;;;;;;;23.86;38.86;100415.03;4166863;28;20232;-31
2022/08/10 06:18:23;;;;;;;4.22;2.20;;;;;;;24.18;38.63;100412.06;4164761;28;20527;-31
2022/08/10 06:20:25;;;;;;;6.53;2.45;;;;;;;23.82;39.01;100432.81;4165608;28;20290;-32
2022/08/10 06:22:31;;;;;;;4.55;1.90;;;;;;;24.41;38.47;100426.72;4169075;28;20236;-31
2022/08/10 06:24:36;;;;;;;3.78;2.40;;;;;;;23.97;38.85;100423.44;4163464;28;20236;-30
2022/08/10 06:26:58;;;;;;;4.60;2.10;;;;;;;24.19;38.82;100423.75;4151754;28;20241;-31
2022/08/10 06:29:12;;;;;;;5.82;2.30;;;;;;;24.25;38.87;100418.22;4148070;28;20717;-33
2022/08/10 06:31:15;;;;;;;8.93;2.22;;;;;;;24.42;38.33;100420.25;4151127;28;20236;-34
2022/08/10 06:33:19;;;;;;;3.95;2.38;;;;;;;24.02;38.85;100426.28;4148237;28;20661;-30
2022/08/10 06:35:25;;;;;;;7.07;2.33;;;;;;;24.16;38.64;100429.59;4142438;28;20233;-31
2022/08/10 06:37:28;;;;;;;4.65;2.20;;;;;;;23.89;39.50;100430.00;4142911;28;20233;-30
2022/08/10 06:39:29;;;;;;;2.58;2.00;;;;;;;24.21;39.04;100411.59;4139818;28;20229;-32
2022/08/10 06:41:44;;;;;;;2.95;2.22;;;;;;;24.01;39.70;100422.75;4139309;28;20230;-33
2022/08/10 06:44:10;;;;;;;4.25;2.20;;;;;;;24.23;39.05;100424.94;4145419;28;20324;-32
2022/08/10 06:46:16;;;;;;;2.55;2.13;;;;;;;24.84;37.98;100422.88;4142058;28;20225;-33
2022/08/10 06:48:26;;;;;;;3.22;2.38;;;;;;;24.22;38.83;100434.97;4142766;28;20225;-31
2022/08/10 06:50:48;;;;;;;3.17;2.30;;;;;;;24.61;38.84;100424.50;4139082;28;20295;-32
2022/08/10 06:53:01;;;;;;;3.60;2.17;;;;;;;24.68;38.64;100427.94;4146304;28;20254;-32
2022/08/10 06:55:07;;;;;;;4.72;1.92;;;;;;;24.78;38.93;100421.91;4142214;28;20295;-30
2022/08/10 06:57:11;;;;;;;3.40;2.42;;;;;;;24.86;38.73;100435.16;4146654;28;20233;-29
2022/08/10 06:59:37;;;;;;;2.53;1.92;;;;;;;24.33;38.90;100441.50;4145296;28;20241;-31
2022/08/10 07:01:42;;;;;;;4.25;1.98;;;;;;;24.72;38.62;100438.34;4144737;28;20291;-31
2022/08/10 07:03:58;;;;;;;3.60;2.20;;;;;;;24.81;38.30;100448.63;4143048;28;20247;-30
2022/08/10 07:06:03;;;;;;;11.00;2.38;;;;;;;24.67;38.62;100445.31;4145390;28;20271;-33
2022/08/10 07:08:06;;;;;;;6.30;2.72;;;;;;;24.81;38.43;100445.09;4147341;28;20237;-31
2022/08/10 07:10:09;;;;;;;6.82;2.15;;;;;;;24.64;38.77;100447.69;4146840;28;20655;-31
2022/08/10 07:12:13;;;;;;;5.05;2.33;;;;;;;25.30;38.05;100429.28;4146513;28;20776;-31
2022/08/10 07:14:17;;;;;;;4.90;2.28;;;;;;;25.43;37.66;100433.66;4145484;28;20605;-30
2022/08/10 07:16:20;;;;;;;9.13;2.40;;;;;;;24.68;38.23;100451.56;4146802;28;20237;-30
2022/08/10 07:18:24;;;;;;;12.18;2.78;;;;;;;24.70;38.39;100441.31;4141107;28;20224;-30
2022/08/10 07:20:27;;;;;;;9.80;2.45;;;;;;;24.88;38.33;100443.06;4147967;28;20255;-31
2022/08/10 07:22:30;;;;;;;4.43;1.80;;;;;;;24.82;38.42;100436.72;4143582;28;20753;-29
2022/08/10 07:24:55;;;;;;;4.72;2.55;;;;;;;24.80;38.71;100430.69;4152274;28;20266;-29
2022/08/10 07:26:58;;;;;;;4.55;1.95;;;;;;;25.22;38.15;100421.50;4155067;28;20236;-30
2022/08/10 07:29:01;;;;;;;4.22;1.88;;;;;;;25.17;38.29;100443.16;4164695;28;20239;-29
2022/08/10 07:31:02;;;;;;;5.18;2.10;;;;;;;25.54;37.81;100434.69;4162065;28;20233;-31
2022/08/10 07:33:25;;;;;;;13.20;2.60;;;;;;;25.16;38.29;100438.81;4164469;28;20625;-38
2022/08/10 07:35:28;;;;;;;5.72;1.98;;;;;;;25.75;37.64;100420.41;4166363;28;20662;-30
2022/08/10 07:37:39;;;;;;;10.25;2.30;;;;;;;25.63;37.91;100421.50;4164289;28;20224;-30
2022/08/10 07:39:44;;;;;;;5.25;2.08;;;;;;;25.90;37.27;100422.56;4165536;28;20760;-29
2022/08/10 07:42:06;;;;;;;5.18;2.58;;;;;;;25.61;37.73;100427.22;4156512;28;20255;-30
2022/08/10 07:44:11;;;;;;;8.45;2.22;;;;;;;25.64;37.56;100415.81;4165132;28;20323;-32
2022/08/10 07:46:15;;;;;;;5.25;2.13;;;;;;;26.24;36.44;100427.28;4158920;28;20275;-29
2022/08/10 07:48:29;;;;;;;6.63;2.13;;;;;;;25.94;37.31;100414.75;4165061;28;20237;-30
2022/08/10 07:50:33;;;;;;;3.22;2.03;;;;;;;25.29;37.78;100427.66;4156336;28;20248;-29
2022/08/10 07:52:38;;;;;;;4.78;2.20;;;;;;;25.63;37.56;100433.25;4161279;28;20279;-33
2022/08/10 07:54:42;;;;;;;5.68;2.30;;;;;;;25.55;38.04;100422.75;4163411;28;20248;-30
2022/08/10 07:56:47;;;;;;;5.85;2.28;;;;;;;25.73;37.07;100438.06;4162797;28;20248;-32
2022/08/10 07:58:56;;;;;;;7.22;1.65;;;;;;;25.89;37.00;100423.63;4162149;28;20509;-30
2022/08/10 08:01:00;;;;;;;7.30;2.28;;;;;;;25.76;37.69;100416.63;4165819;28;20368;-31
2022/08/10 08:03:06;;;;;;;4.68;1.90;;;;;;;25.91;36.88;100424.25;4162729;28;20239;-32
2022/08/10 08:05:09;;;;;;;6.35;2.33;;;;;;;25.91;36.78;100426.97;4155627;28;20274;-30
2022/08/10 08:07:37;;;;;;;4.80;2.10;;;;;;;26.49;36.38;100426.84;4153570;28;20240;-30
2022/08/10 08:09:39;;;;;;;6.85;2.17;;;;;;;26.49;36.65;100444.03;4160465;28;20790;-32
2022/08/10 08:12:02;;;;;;;3.17;1.90;;;;;;;26.41;36.33;100447.16;4166758;28;20274;-29
2022/08/10 08:14:07;;;;;;;5.00;2.10;;;;;;;26.18;36.28;100452.78;4171149;28;20444;-32
2022/08/10 08:16:10;;;;;;;4.70;1.80;;;;;;;26.70;36.06;100426.09;4166007;28;20251;-30
2022/08/10 08:18:22;;;;;;;3.15;1.80;;;;;;;26.05;36.45;100462.06;4159058;28;20614;-33
2022/08/10 08:20:26;;;;;;;3.50;1.85;;;;;;;26.72;35.53;100436.75;4164245;28;20225;-31
2022/08/10 08:22:30;;;;;;;4.32;1.90;;;;;;;26.80;35.38;100441.78;4154471;28;20278;-32
2022/08/10 08:24:54;;;;;;;5.45;1.77;;;;;;;26.19;36.38;100449.81;4134016;28;20236;-32
2022/08/10 08:26:58;;;;;;;4.32;1.73;;;;;;;26.43;36.25;100449.66;4151377;28;20518;-32
2022/08/10 08:29:01;;;;;;;5.05;1.90;;;;;;;26.65;36.07;100441.56;4157982;28;20232;-32
2022/08/10 08:31:06;;;;;;;8.65;2.10;;;;;;;26.87;35.21;100426.06;4161625;28;20337;-31
2022/08/10 08:33:11;;;;;;;2.95;1.70;;;;;;;27.04;35.04;100438.84;4162307;28;20283;-33
2022/08/10 08:35:21;;;;;;;2.72;1.50;;;;;;;26.82;34.91;100449.72;4164033;28;20242;-33
2022/08/10 08:37:26;;;;;;;8.80;2.25;;;;;;;27.07;35.55;100439.19;4160548;28;20264;-30
2022/08/10 08:39:48;;;;;;;5.70;1.95;;;;;;;27.45;34.83;100428.47;4168502;28;20251;-30
2022/08/10 08:42:10;;;;;;;4.43;1.83;;;;;;;27.25;35.32;100432.59;4163645;28;20290;-31
2022/08/10 08:44:52;;;;;;;4.22;1.73;;;;;;;27.18;34.98;100445.63;4163773;28;20260;-29
2022/08/10 08:47:22;;;;;;;4.53;1.83;;;;;;;27.41;34.80;100446.44;4124786;28;20228;-30
2022/08/10 08:49:44;;;;;;;5.68;1.60;;;;;;;27.60;34.85;100433.25;4158672;28;20702;-30
2022/08/10 08:52:27;;;;;;;2.38;1.50;;;;;;;27.11;35.25;100431.31;4159486;28;20263;-30
2022/08/10 08:55:17;;;;;;;1.70;1.33;;;;;;;27.47;34.92;100434.50;4155409;28;20255;-31
2022/08/10 08:58:14;;;;;;;5.03;1.77;;;;;;;27.86;34.24;100431.66;4122598;28;20242;-30
2022/08/10 09:00:16;;;;;;;2.78;1.50;;;;;;;27.76;34.73;100439.75;4163175;28;20232;-30
2022/08/10 09:02:33;;;;;;;2.80;1.63;;;;;;;27.58;34.48;100449.09;4165807;28;20626;-30
2022/08/10 09:05:05;;;;;;;4.60;1.55;;;;;;;27.94;34.58;100428.47;4160453;28;20377;-30
2022/08/10 09:07:29;;;;;;;2.30;1.45;;;;;;;27.52;34.31;100440.00;4144779;28;20287;-30
2022/08/10 09:09:56;;;;;;;3.40;1.75;;;;;;;28.08;34.29;100417.91;4145807;28;20523;-30
2022/08/10 09:12:35;;;;;;;4.35;1.70;;;;;;;28.42;33.77;100425.06;4146715;28;20255;-30
2022/08/10 09:14:42;;;;;;;6.35;2.30;;;;;;;28.44;33.92;100431.06;4141994;28;20320;-30
2022/08/10 09:16:56;;;;;;;4.57;1.50;;;;;;;28.22;33.52;100444.84;4143788;28;20687;-29
2022/08/10 09:19:24;;;;;;;2.17;1.50;;;;;;;28.50;33.74;100440.97;4150208;28;20232;-30
2022/08/10 09:22:01;;;;;;;3.65;1.80;;;;;;;28.42;33.71;100422.31;4155871;28;20815;-30
2022/08/10 09:24:30;;;;;;;4.35;1.83;;;;;;;28.28;33.28;100414.56;4163445;28;20235;-32
2022/08/10 09:26:36;;;;;;;3.17;1.50;;;;;;;28.64;33.71;100423.00;4155912;28;20307;-30
2022/08/10 09:28:41;;;;;;;5.72;1.77;;;;;;;29.20;32.82;100419.81;4159471;28;20255;-31
2022/08/10 09:30:55;;;;;;;2.70;1.60;;;;;;;28.85;33.08;100431.34;4140181;28;20642;-29
2022/08/10 09:33:30;;;;;;;2.75;1.50;;;;;;;28.62;33.14;100422.44;4148903;28;20466;-30
2022/08/10 09:36:14;;;;;;;4.57;1.50;;;;;;;28.95;32.26;100415.03;4140130;28;20661;-30
2022/08/10 09:38:53;;;;;;;4.25;1.73;;;;;;;29.37;32.33;100416.00;4146517;28;20287;-30
2022/08/10 09:41:21;;;;;;;5.25;1.70;;;;;;;28.79;32.61;100416.03;4142477;28;20228;-31
2022/08/10 09:43:38;;;;;;;5.28;1.90;;;;;;;28.58;32.59;100434.19;4162635;28;20290;-31
2022/08/10 09:45:40;;;;;;;3.22;1.75;;;;;;;29.09;30.63;100429.03;4154906;28;20232;-30
2022/08/10 09:48:03;;;;;;;3.85;1.40;;;;;;;29.20;31.22;100427.16;4159693;28;20717;-31
2022/08/10 09:50:22;;;;;;;4.47;1.50;;;;;;;29.02;32.11;100423.81;4159366;28;20235;-31
2022/08/10 09:52:35;;;;;;;3.22;1.60;;;;;;;28.76;32.13;100430.22;4144792;28;20222;-30
2022/08/10 09:55:15;;;;;;;5.65;1.60;;;;;;;29.45;31.27;100416.31;4145576;28;20240;-29
2022/08/10 09:57:20;;;;;;;2.75;1.50;;;;;;;29.28;31.35;100432.16;4162499;28;20263;-30
2022/08/10 10:00:02;;;;;;;3.65;1.73;;;;;;;29.56;31.71;100419.91;4155850;28;20263;-29
2022/08/10 10:02:23;;;;;;;5.80;1.73;;;;;;;29.76;30.74;100426.53;4162000;28;20779;-31
2022/08/10 10:04:32;;;;;;;5.72;1.65;;;;;;;29.95;30.73;100416.72;4140781;28;20237;-30
2022/08/10 10:06:53;;;;;;;6.82;2.00;;;;;;;29.97;31.29;100400.00;4142439;28;20244;-30